createdAt,value
2022-08-22T00:01:12.304Z,2.60
2022-08-22T00:02:53.684Z,2.20
2022-08-22T00:03:03.867Z,2.67
2022-08-22T00:03:12.110Z,1.77
2022-08-22T00:03:52.190Z,2.00
2022-08-22T00:06:27.278Z,2.22
2022-08-22T00:09:05.539Z,1.70
2022-08-22T00:11:44.834Z,1.90
2022-08-22T00:14:19.886Z,2.20
2022-08-22T00:16:55.506Z,2.30
2022-08-22T00:19:31.662Z,1.95
2022-08-22T00:22:04.430Z,2.45
2022-08-22T00:24:40.106Z,2.88
2022-08-22T00:27:13.367Z,2.30
2022-08-22T00:29:45.167Z,2.15
2022-08-22T00:32:20.415Z,2.72
2022-08-22T00:34:57.758Z,2.85
2022-08-22T00:37:31.544Z,2.65
2022-08-22T00:40:09.131Z,2.15
2022-08-22T00:43:00.218Z,2.13
2022-08-22T00:45:49.187Z,2.53
2022-08-22T00:48:41.544Z,3.25
2022-08-22T00:51:39.570Z,3.70
2022-08-22T00:54:19.415Z,2.17
2022-08-22T00:57:03.841Z,2.15
2022-08-22T00:59:47.838Z,2.65
2022-08-22T01:02:32.767Z,2.17
2022-08-22T01:05:17.022Z,2.53
2022-08-22T01:08:01.554Z,2.30
2022-08-22T01:10:43.352Z,2.50
2022-08-22T01:13:23.382Z,2.40
2022-08-22T01:15:58.154Z,2.30
2022-08-22T01:18:52.829Z,2.00
2022-08-22T01:21:50.190Z,2.70
2022-08-22T01:25:02.278Z,2.40
2022-08-22T01:28:02.768Z,2.50
2022-08-22T01:30:56.364Z,2.30
2022-08-22T01:33:49.177Z,1.88
2022-08-22T01:36:36.786Z,2.60
2022-08-22T01:39:27.499Z,1.92
2022-08-22T01:42:22.113Z,2.15
2022-08-22T01:45:11.665Z,2.08
2022-08-22T01:47:43.891Z,2.17
2022-08-22T01:50:19.480Z,1.83
2022-08-22T01:52:51.133Z,2.75
2022-08-22T01:55:27.115Z,2.20
2022-08-22T01:57:59.042Z,2.40
2022-08-22T02:00:34.872Z,2.95
2022-08-22T02:03:15.461Z,2.40
2022-08-22T02:05:50.779Z,2.40
2022-08-22T02:08:28.154Z,2.20
2022-08-22T02:11:03.708Z,2.10
2022-08-22T02:13:45.941Z,2.25
2022-08-22T02:16:18.726Z,2.50
2022-08-22T02:18:57.744Z,1.73
2022-08-22T02:21:32.675Z,2.58
2022-08-22T02:24:06.214Z,2.88
2022-08-22T02:26:45.082Z,2.28
2022-08-22T02:29:18.780Z,2.42
2022-08-22T02:31:54.407Z,2.70
2022-08-22T02:34:36.934Z,2.35
2022-08-22T02:37:10.611Z,3.08
2022-08-22T02:39:47.249Z,3.47
2022-08-22T02:42:23.362Z,3.00
2022-08-22T02:44:59.031Z,2.40
2022-08-22T02:47:34.366Z,3.10
2022-08-22T02:50:12.782Z,1.92
2022-08-22T02:52:52.282Z,2.10
2022-08-22T02:55:34.298Z,2.22
2022-08-22T02:58:06.342Z,1.80
2022-08-22T03:00:47.932Z,2.10
2022-08-22T03:03:21.341Z,2.70
2022-08-22T03:06:01.305Z,2.28
2022-08-22T03:08:31.673Z,2.47
2022-08-22T03:11:17.493Z,2.75
2022-08-22T03:13:54.846Z,3.17
2022-08-22T03:16:33.768Z,2.70
2022-08-22T03:19:07.179Z,2.70
2022-08-22T03:21:46.275Z,2.50
2022-08-22T03:24:20.870Z,3.15
2022-08-22T03:26:53.071Z,2.72
2022-08-22T03:29:25.670Z,2.50
2022-08-22T03:32:11.130Z,3.53
2022-08-22T03:34:54.022Z,2.60
2022-08-22T03:37:27.035Z,3.00
2022-08-22T03:40:01.081Z,3.05
2022-08-22T03:42:51.838Z,2.30
2022-08-22T03:45:42.877Z,2.78
2022-08-22T03:48:35.994Z,3.35
2022-08-22T03:51:20.416Z,2.83
2022-08-22T03:54:14.751Z,2.88
2022-08-22T03:57:12.274Z,2.40
2022-08-22T04:00:01.479Z,3.00
2022-08-22T04:02:50.594Z,2.65
2022-08-22T04:05:40.541Z,3.25
2022-08-22T04:08:31.746Z,3.40
2022-08-22T04:11:16.660Z,3.67
2022-08-22T04:14:00.606Z,3.22
2022-08-22T04:17:00.907Z,3.17
2022-08-22T04:19:49.153Z,2.80
2022-08-22T04:22:34.005Z,3.00
2022-08-22T04:25:08.375Z,3.08
2022-08-22T04:27:41.965Z,2.67
2022-08-22T04:30:25.072Z,2.97
2022-08-22T04:33:02.218Z,2.63
2022-08-22T04:35:34.829Z,3.65
2022-08-22T04:38:09.272Z,2.45
2022-08-22T04:40:43.283Z,2.50
2022-08-22T04:43:15.403Z,3.22
2022-08-22T04:45:51.371Z,3.25
2022-08-22T04:48:26.923Z,2.80
2022-08-22T04:50:58.795Z,2.55
2022-08-22T04:53:40.025Z,2.70
2022-08-22T04:56:14.706Z,3.10
2022-08-22T04:58:47.522Z,2.53
2022-08-22T05:01:21.114Z,2.70
2022-08-22T05:03:55.736Z,2.88
2022-08-22T05:06:28.480Z,3.38
2022-08-22T05:09:00.621Z,2.63
2022-08-22T05:11:30.450Z,3.33
2022-08-22T05:14:03.990Z,2.80
2022-08-22T05:16:42.651Z,3.20
2022-08-22T05:19:18.891Z,3.03
2022-08-22T05:21:50.455Z,3.10
2022-08-22T05:24:27.935Z,2.80
2022-08-22T05:26:58.299Z,2.90
2022-08-22T05:29:30.877Z,3.38
2022-08-22T05:32:02.942Z,4.07
2022-08-22T05:34:36.862Z,3.40
2022-08-22T05:37:11.122Z,3.50
2022-08-22T05:39:42.012Z,3.28
2022-08-22T05:42:16.322Z,2.53
2022-08-22T05:44:44.087Z,3.70
2022-08-22T05:47:22.073Z,2.97
2022-08-22T05:49:58.869Z,2.75
2022-08-22T05:52:39.798Z,2.72
2022-08-22T05:55:17.634Z,3.20
2022-08-22T05:57:52.886Z,2.53
2022-08-22T06:00:23.266Z,3.42
2022-08-22T06:03:01.768Z,2.63
2022-08-22T06:05:36.861Z,2.95
2022-08-22T06:08:08.775Z,2.65
2022-08-22T06:10:42.134Z,2.50
2022-08-22T06:13:14.974Z,2.47
2022-08-22T06:15:49.348Z,2.27
2022-08-22T06:18:21.226Z,3.03
2022-08-22T06:20:54.317Z,2.43
2022-08-22T06:23:27.330Z,2.57
2022-08-22T06:25:59.750Z,2.07
2022-08-22T06:28:33.032Z,2.00
2022-08-22T06:31:04.022Z,2.13
2022-08-22T06:33:38.238Z,2.13
2022-08-22T06:36:25.754Z,2.60
2022-08-22T06:39:00.182Z,2.30
2022-08-22T06:41:31.377Z,2.00
2022-08-22T06:44:01.224Z,1.73
2022-08-22T06:46:35.652Z,1.90
2022-08-22T06:49:05.735Z,3.40
2022-08-22T06:51:37.586Z,2.47
2022-08-22T06:54:10.679Z,2.43
2022-08-22T06:56:42.475Z,1.93
2022-08-22T06:59:14.574Z,1.77
2022-08-22T07:01:50.998Z,2.20
2022-08-22T07:04:19.210Z,2.30
2022-08-22T07:06:51.817Z,1.50
2022-08-22T07:09:25.202Z,2.33
2022-08-22T07:11:54.326Z,2.00
2022-08-22T07:14:28.765Z,2.10
2022-08-22T07:17:00.383Z,2.37
2022-08-22T07:19:31.632Z,2.77
2022-08-22T07:22:10.938Z,2.20
2022-08-22T07:24:51.443Z,2.47
2022-08-22T07:27:29.014Z,2.20
2022-08-22T07:30:04.093Z,2.30
2022-08-22T07:32:42.906Z,2.00
2022-08-22T07:35:14.042Z,2.90
2022-08-22T07:37:54.420Z,2.67
2022-08-22T07:40:28.152Z,2.30
2022-08-22T07:43:03.110Z,2.87
2022-08-22T07:45:39.740Z,2.03
2022-08-22T07:48:26.309Z,2.60
2022-08-22T07:51:02.598Z,1.90
2022-08-22T07:53:40.234Z,2.80
2022-08-22T07:56:13.375Z,2.00
2022-08-22T07:58:43.662Z,2.10
2022-08-22T08:01:16.785Z,1.90
2022-08-22T08:03:53.009Z,2.00
2022-08-22T08:06:23.070Z,3.40
2022-08-22T08:08:54.223Z,2.07
2022-08-22T08:11:25.558Z,1.80
2022-08-22T08:13:58.751Z,2.50
2022-08-22T08:16:35.407Z,2.37
2022-08-22T08:19:03.775Z,2.10
2022-08-22T08:21:34.494Z,2.13
2022-08-22T08:24:06.437Z,1.83
2022-08-22T08:26:39.067Z,2.10
2022-08-22T08:29:08.038Z,2.27
2022-08-22T08:31:43.370Z,1.90
2022-08-22T08:34:17.637Z,1.80
2022-08-22T08:36:51.442Z,2.10
2022-08-22T08:39:28.587Z,2.07
2022-08-22T08:42:23.002Z,2.30
2022-08-22T08:45:12.726Z,2.20
2022-08-22T08:47:56.692Z,2.30
2022-08-22T08:50:43.782Z,3.03
2022-08-22T08:53:35.391Z,2.57
2022-08-22T08:56:12.017Z,2.20
2022-08-22T08:58:46.425Z,2.37
2022-08-22T09:01:34.708Z,2.10
2022-08-22T09:04:25.365Z,2.10
2022-08-22T09:07:08.778Z,2.03
2022-08-22T09:09:52.573Z,2.63
2022-08-22T09:12:56.210Z,2.60
2022-08-22T09:15:58.601Z,2.80
2022-08-22T09:18:51.517Z,2.30
2022-08-22T09:21:50.636Z,2.40
2022-08-22T09:24:41.354Z,2.60
2022-08-22T09:27:15.835Z,2.10
2022-08-22T09:29:55.062Z,2.47
2022-08-22T09:32:38.442Z,2.97
2022-08-22T09:35:12.350Z,2.80
2022-08-22T09:37:49.138Z,2.77
2022-08-22T09:43:02.565Z,2.37
2022-08-22T09:45:42.959Z,2.20
2022-08-22T09:48:23.881Z,1.87
2022-08-22T09:51:31.192Z,2.10
2022-08-22T09:54:09.677Z,2.00
2022-08-22T09:56:43.435Z,2.40
2022-08-22T09:59:22.742Z,1.90
2022-08-22T10:01:58.645Z,2.07
2022-08-22T10:04:45.806Z,2.00
2022-08-22T10:07:32.150Z,2.83
2022-08-22T10:10:08.245Z,1.87
2022-08-22T10:12:46.871Z,1.90
2022-08-22T10:15:24.001Z,2.30
2022-08-22T10:18:07.001Z,1.70
2022-08-22T10:20:50.934Z,2.10
2022-08-22T10:23:25.034Z,1.37
2022-08-22T10:26:04.519Z,1.63
2022-08-22T10:28:44.287Z,1.93
2022-08-22T10:31:24.632Z,1.53
2022-08-22T10:34:01.982Z,1.90
2022-08-22T10:36:37.354Z,1.67
2022-08-22T10:39:14.245Z,1.93
2022-08-22T10:42:00.797Z,1.40
2022-08-22T10:44:39.588Z,2.00
2022-08-22T10:47:14.161Z,1.50
2022-08-22T10:49:51.219Z,1.30
2022-08-22T10:52:24.043Z,1.83
2022-08-22T10:54:57.282Z,1.67
2022-08-22T10:57:41.184Z,1.10
2022-08-22T11:00:16.923Z,1.20
2022-08-22T11:02:57.895Z,0.97
2022-08-22T11:05:40.638Z,1.33
2022-08-22T11:08:34.900Z,1.40
2022-08-22T11:11:09.295Z,1.60
2022-08-22T11:13:44.007Z,1.53
2022-08-22T11:16:21.276Z,1.40
2022-08-22T11:19:15.081Z,1.37
2022-08-22T11:21:55.197Z,1.83
2022-08-22T11:24:58.661Z,2.10
2022-08-22T11:27:39.425Z,2.10
2022-08-22T11:30:18.659Z,1.50
2022-08-22T11:33:11.548Z,1.67
2022-08-22T11:35:46.503Z,1.93
2022-08-22T11:38:32.893Z,1.83
2022-08-22T11:41:09.264Z,1.83
2022-08-22T11:43:51.084Z,1.30
2022-08-22T11:46:25.555Z,1.50
2022-08-22T11:49:15.386Z,1.60
2022-08-22T11:52:03.419Z,1.57
2022-08-22T11:54:46.885Z,1.80
2022-08-22T11:57:22.785Z,1.97
2022-08-22T12:00:10.583Z,2.20
2022-08-22T12:02:52.926Z,1.63
2022-08-22T12:05:26.398Z,1.80
2022-08-22T12:08:04.729Z,1.87
2022-08-22T12:10:40.678Z,1.30
2022-08-22T12:13:16.431Z,1.50
2022-08-22T12:15:54.431Z,2.00
2022-08-22T12:18:35.403Z,1.80
2022-08-22T12:21:33.148Z,2.33
2022-08-22T12:24:27.567Z,2.13
2022-08-22T12:27:29.242Z,1.80
2022-08-22T12:30:14.625Z,1.37
2022-08-22T12:33:10.450Z,2.10
2022-08-22T12:35:54.428Z,1.73
2022-08-22T12:38:37.845Z,2.00
2022-08-22T12:41:28.433Z,2.10
2022-08-22T12:44:20.087Z,1.90
2022-08-22T12:47:05.349Z,1.90
2022-08-22T12:49:52.158Z,2.40
2022-08-22T12:52:45.718Z,1.60
2022-08-22T12:55:33.771Z,1.83
2022-08-22T12:58:15.282Z,1.63
2022-08-22T13:00:49.025Z,1.97
2022-08-22T13:03:24.852Z,2.57
2022-08-22T13:05:57.118Z,1.90
2022-08-22T13:08:31.941Z,2.20
2022-08-22T13:11:03.197Z,2.73
2022-08-22T13:13:40.624Z,1.80
2022-08-22T13:16:15.387Z,2.27
2022-08-22T13:18:53.445Z,1.90
2022-08-22T13:21:31.501Z,4.33
2022-08-22T13:24:10.550Z,2.67
2022-08-22T13:26:50.427Z,2.37
2022-08-22T13:29:26.197Z,2.27
2022-08-22T13:32:01.642Z,2.30
2022-08-22T13:34:40.648Z,2.50
2022-08-22T13:37:15.616Z,2.10
2022-08-22T13:39:49.651Z,2.30
2022-08-22T13:42:30.044Z,2.37
2022-08-22T13:45:02.469Z,2.20
2022-08-22T13:47:39.285Z,2.60
2022-08-22T13:50:14.002Z,2.70
2022-08-22T13:52:52.580Z,1.87
2022-08-22T13:55:30.801Z,1.93
2022-08-22T13:58:07.474Z,2.60
2022-08-22T14:01:02.285Z,2.40
2022-08-22T14:03:39.629Z,2.10
2022-08-22T14:06:37.127Z,2.13
2022-08-22T14:09:23.624Z,2.10
2022-08-22T14:12:11.780Z,1.93
2022-08-22T14:14:43.247Z,2.07
2022-08-22T14:17:17.866Z,2.80
2022-08-22T14:19:58.946Z,2.40
2022-08-22T14:22:35.627Z,1.97
2022-08-22T14:25:08.458Z,2.00
2022-08-22T14:27:40.307Z,2.47
2022-08-22T14:30:16.070Z,2.17
2022-08-22T14:32:49.826Z,2.10
2022-08-22T14:35:34.681Z,2.03
2022-08-22T14:38:20.656Z,2.30
2022-08-22T14:40:57.527Z,2.50
2022-08-22T14:43:40.594Z,1.73
2022-08-22T14:46:14.150Z,2.33
2022-08-22T14:48:47.450Z,3.73
2022-08-22T14:51:23.991Z,2.50
2022-08-22T14:53:52.424Z,2.20
2022-08-22T14:56:23.801Z,2.30
2022-08-22T14:58:55.835Z,2.50
2022-08-22T15:01:26.732Z,2.10
2022-08-22T15:04:04.406Z,2.43
2022-08-22T15:06:37.468Z,2.10
2022-08-22T15:09:08.551Z,2.30
2022-08-22T15:11:42.061Z,2.20
2022-08-22T15:14:25.270Z,2.20
2022-08-22T15:16:59.985Z,2.53
2022-08-22T15:19:41.131Z,2.30
2022-08-22T15:22:14.933Z,3.00
2022-08-22T15:24:45.870Z,2.53
2022-08-22T15:27:20.106Z,2.20
2022-08-22T15:29:52.224Z,2.30
2022-08-22T15:32:23.266Z,2.40
2022-08-22T15:35:03.537Z,1.80
2022-08-22T15:37:35.030Z,3.27
2022-08-22T15:40:11.983Z,2.20
2022-08-22T15:42:44.487Z,2.30
2022-08-22T15:45:23.688Z,2.00
2022-08-22T15:47:54.205Z,2.03
2022-08-22T15:50:36.533Z,2.00
2022-08-22T15:53:14.604Z,2.20
2022-08-22T15:56:22.738Z,2.27
2022-08-22T15:59:13.895Z,1.80
2022-08-22T16:01:44.756Z,1.93
2022-08-22T16:04:30.897Z,2.20
2022-08-22T16:07:01.379Z,2.73
2022-08-22T16:09:37.247Z,2.53
2022-08-22T16:12:09.178Z,2.20
2022-08-22T16:14:53.267Z,2.27
2022-08-22T16:17:53.284Z,1.90
2022-08-22T16:20:56.864Z,1.57
2022-08-22T16:23:24.811Z,3.03
2022-08-22T16:26:10.898Z,2.07
2022-08-22T16:28:59.182Z,2.23
2022-08-22T16:31:31.757Z,2.03
2022-08-22T16:34:20.114Z,2.40
2022-08-22T16:36:51.069Z,1.80
2022-08-22T16:39:36.947Z,2.47
2022-08-22T16:42:25.807Z,2.33
2022-08-22T16:44:59.290Z,1.93
2022-08-22T16:47:42.054Z,2.30
2022-08-22T16:50:28.898Z,1.77
2022-08-22T16:53:01.410Z,1.70
2022-08-22T16:55:56.098Z,1.77
2022-08-22T16:58:56.876Z,2.30
2022-08-22T17:01:38.726Z,1.93
2022-08-22T17:04:17.835Z,2.30
2022-08-22T17:06:56.818Z,2.50
2022-08-22T17:09:49.295Z,2.37
2022-08-22T17:12:25.556Z,2.40
2022-08-22T17:15:04.413Z,2.07
2022-08-22T17:17:41.743Z,2.17
2022-08-22T17:20:24.321Z,2.10
2022-08-22T17:22:59.739Z,1.90
2022-08-22T17:25:35.470Z,2.47
2022-08-22T17:28:13.105Z,2.70
2022-08-22T17:30:47.645Z,2.40
2022-08-22T17:33:38.139Z,1.70
2022-08-22T17:36:26.830Z,1.73
2022-08-22T17:39:04.410Z,2.47
2022-08-22T17:41:46.126Z,2.40
2022-08-22T17:44:23.886Z,2.13
2022-08-22T17:47:07.267Z,2.10
2022-08-22T17:49:51.353Z,2.77
2022-08-22T17:52:30.731Z,2.40
2022-08-22T17:55:06.259Z,2.03
2022-08-22T17:57:37.395Z,2.00
2022-08-22T18:00:16.089Z,2.50
2022-08-22T18:02:54.785Z,2.70
2022-08-22T18:05:27.507Z,2.40
2022-08-22T18:08:03.293Z,2.30
2022-08-22T18:10:42.470Z,2.70
2022-08-22T18:13:14.852Z,2.00
2022-08-22T18:15:51.505Z,2.63
2022-08-22T18:18:30.257Z,2.33
2022-08-22T18:21:03.928Z,2.40
2022-08-22T18:23:39.887Z,2.50
2022-08-22T18:26:27.035Z,2.83
2022-08-22T18:29:04.252Z,2.87
2022-08-22T18:31:40.829Z,2.80
2022-08-22T18:34:21.398Z,2.20
2022-08-22T18:36:56.946Z,3.47
2022-08-22T18:39:30.953Z,2.77
2022-08-22T18:43:06.481Z,3.37
2022-08-22T18:46:03.275Z,2.70
2022-08-22T18:48:49.531Z,2.33
2022-08-22T18:51:30.641Z,2.33
2022-08-22T18:54:20.915Z,2.03
2022-08-22T18:56:53.935Z,2.60
2022-08-22T18:59:45.839Z,2.57
2022-08-22T19:02:34.607Z,3.43
2022-08-22T19:05:31.494Z,2.70
2022-08-22T19:08:28.658Z,2.13
2022-08-22T19:11:09.970Z,2.60
2022-08-22T19:13:56.222Z,2.93
2022-08-22T19:16:47.930Z,2.40
2022-08-22T19:19:20.512Z,2.43
2022-08-22T19:22:20.436Z,2.30
2022-08-22T19:25:08.859Z,2.27
2022-08-22T19:27:40.386Z,2.70
2022-08-22T19:30:29.235Z,3.07
2022-08-22T19:33:02.763Z,2.20
2022-08-22T19:35:42.757Z,2.40
2022-08-22T19:38:12.415Z,2.50
2022-08-22T19:40:58.582Z,3.13
2022-08-22T19:43:32.908Z,2.23
2022-08-22T19:46:06.315Z,2.50
2022-08-22T19:48:44.335Z,3.43
2022-08-22T19:51:24.283Z,2.83
2022-08-22T19:54:06.781Z,2.60
2022-08-22T19:56:50.911Z,2.10
2022-08-22T19:59:27.464Z,2.50
2022-08-22T20:02:08.771Z,2.23
2022-08-22T20:04:52.649Z,2.67
2022-08-22T20:07:31.401Z,3.10
2022-08-22T20:10:12.871Z,2.63
2022-08-22T20:13:00.956Z,2.77
2022-08-22T20:15:31.346Z,2.77
2022-08-22T20:20:59.622Z,3.10
2022-08-22T20:23:31.991Z,2.60
2022-08-22T20:26:00.228Z,3.00
2022-08-22T20:28:37.009Z,3.17
2022-08-22T20:31:10.095Z,3.10
2022-08-22T20:33:40.575Z,2.30
2022-08-22T20:36:27.293Z,3.90
2022-08-22T20:39:06.415Z,3.40
2022-08-22T20:41:37.205Z,3.00
2022-08-22T20:44:13.263Z,3.37
2022-08-22T20:46:54.898Z,2.67
2022-08-22T20:49:25.884Z,2.80
2022-08-22T20:51:56.358Z,3.40
2022-08-22T20:54:26.328Z,3.17
2022-08-22T20:56:56.865Z,3.40
2022-08-22T20:59:30.919Z,3.03
2022-08-22T21:02:07.269Z,3.47
2022-08-22T21:04:45.263Z,3.23
2022-08-22T21:07:13.034Z,3.57
2022-08-22T21:09:54.756Z,3.17
2022-08-22T21:12:23.952Z,3.03
2022-08-22T21:14:53.055Z,3.33
2022-08-22T21:17:24.919Z,2.90
2022-08-22T21:19:52.842Z,3.27
2022-08-22T21:22:28.683Z,3.40
2022-08-22T21:24:58.622Z,2.93
2022-08-22T21:27:30.263Z,3.10
2022-08-22T21:30:00.917Z,3.20
2022-08-22T21:32:35.000Z,3.27
2022-08-22T21:35:05.682Z,2.73
2022-08-22T21:37:39.548Z,3.30
2022-08-22T21:40:15.161Z,3.40
2022-08-22T21:42:45.895Z,3.30
2022-08-22T21:45:31.954Z,3.10
2022-08-22T21:48:00.189Z,3.33
2022-08-22T21:50:34.530Z,2.97
2022-08-22T21:53:10.164Z,2.97
2022-08-22T21:55:42.710Z,2.93
2022-08-22T21:58:35.767Z,3.13
2022-08-22T22:01:28.487Z,3.23
2022-08-22T22:03:58.151Z,3.77
2022-08-22T22:06:26.201Z,3.03
2022-08-22T22:08:54.058Z,3.10
2022-08-22T22:11:21.813Z,3.00
2022-08-22T22:13:49.568Z,2.90
2022-08-22T22:16:23.713Z,2.92
2022-08-22T22:18:52.650Z,2.90
2022-08-22T22:21:21.760Z,3.10
2022-08-22T22:23:50.454Z,3.05
2022-08-22T22:26:18.290Z,2.58
2022-08-22T22:28:48.797Z,3.05
2022-08-22T22:31:18.456Z,2.97
2022-08-22T22:33:46.659Z,3.60
2022-08-22T22:36:21.941Z,3.53
2022-08-22T22:38:51.814Z,3.17
2022-08-22T22:41:25.053Z,3.03
2022-08-22T22:43:53.350Z,3.40
2022-08-22T22:46:21.090Z,3.78
2022-08-22T22:48:49.413Z,3.28
2022-08-22T22:51:17.262Z,3.10
2022-08-22T22:53:47.027Z,3.10
2022-08-22T22:56:17.922Z,3.00
2022-08-22T22:58:49.747Z,3.88
2022-08-22T23:01:19.567Z,3.15
2022-08-22T23:03:54.931Z,3.55
2022-08-22T23:06:25.010Z,3.47
2022-08-22T23:08:54.599Z,3.50
2022-08-22T23:11:25.529Z,3.00
2022-08-22T23:13:53.581Z,2.90
2022-08-22T23:16:25.641Z,3.97
2022-08-22T23:18:53.547Z,3.92
2022-08-22T23:21:23.163Z,3.05
2022-08-22T23:23:51.959Z,3.17
2022-08-22T23:26:20.978Z,3.10
2022-08-22T23:28:48.729Z,3.80
2022-08-22T23:31:19.014Z,3.35
2022-08-22T23:33:47.326Z,3.70
2022-08-22T23:36:22.226Z,3.72
2022-08-22T23:38:51.817Z,4.38
2022-08-22T23:41:25.426Z,3.78
2022-08-22T23:43:55.046Z,3.95
2022-08-22T23:46:24.747Z,4.30
2022-08-22T23:48:52.731Z,4.13
2022-08-22T23:51:24.876Z,3.80
2022-08-22T23:53:54.206Z,3.47
2022-08-22T23:56:28.005Z,3.63
2022-08-22T23:58:56.958Z,3.00
